sensor_id;sensor_type;location;lat;lon;timestamp;temperature;humidity
8214;DHT22;4148;47.974;7.824;2023-06-24T00:00:19;16.90;99.90
8214;DHT22;4148;47.974;7.824;2023-06-24T00:02:46;17.10;99.90
8214;DHT22;4148;47.974;7.824;2023-06-24T00:05:16;17.20;99.90
8214;DHT22;4148;47.974;7.824;2023-06-24T00:07:44;17.10;99.90
8214;DHT22;4148;47.974;7.824;2023-06-24T00:10:13;16.90;99.90
8214;DHT22;4148;47.974;7.824;2023-06-24T00:12:43;16.80;99.90
8214;DHT22;4148;47.974;7.824;2023-06-24T00:15:11;16.90;99.90
8214;DHT22;4148;47.974;7.824;2023-06-24T00:17:39;16.80;99.90
8214;DHT22;4148;47.974;7.824;2023-06-24T00:20:07;16.90;99.90
8214;DHT22;4148;47.974;7.824;2023-06-24T00:22:39;16.80;99.90
8214;DHT22;4148;47.974;7.824;2023-06-24T00:25:11;16.70;99.90
8214;DHT22;4148;47.974;7.824;2023-06-24T00:27:40;16.60;99.90
8214;DHT22;4148;47.974;7.824;2023-06-24T00:30:09;16.50;99.90
8214;DHT22;4148;47.974;7.824;2023-06-24T00:32:37;16.40;99.90
8214;DHT22;4148;47.974;7.824;2023-06-24T00:35:06;16.50;99.90
8214;DHT22;4148;47.974;7.824;2023-06-24T00:37:34;16.40;99.90
8214;DHT22;4148;47.974;7.824;2023-06-24T00:40:04;16.20;99.90
8214;DHT22;4148;47.974;7.824;2023-06-24T00:42:42;16.30;99.90
8214;DHT22;4148;47.974;7.824;2023-06-24T00:45:11;16.30;99.90
8214;DHT22;4148;47.974;7.824;2023-06-24T00:47:40;16.40;99.90
8214;DHT22;4148;47.974;7.824;2023-06-24T00:50:09;16.30;99.90
8214;DHT22;4148;47.974;7.824;2023-06-24T00:52:38;16.10;99.90
8214;DHT22;4148;47.974;7.824;2023-06-24T00:55:11;16.00;99.90
8214;DHT22;4148;47.974;7.824;2023-06-24T00:57:39;15.80;99.90
8214;DHT22;4148;47.974;7.824;2023-06-24T01:00:08;15.70;99.90
8214;DHT22;4148;47.974;7.824;2023-06-24T01:02:40;15.80;99.90
8214;DHT22;4148;47.974;7.824;2023-06-24T01:05:10;15.80;99.90
8214;DHT22;4148;47.974;7.824;2023-06-24T01:07:39;15.80;99.90
8214;DHT22;4148;47.974;7.824;2023-06-24T01:10:10;16.00;99.90
8214;DHT22;4148;47.974;7.824;2023-06-24T01:12:40;16.10;99.90
8214;DHT22;4148;47.974;7.824;2023-06-24T01:15:11;16.10;99.90
8214;DHT22;4148;47.974;7.824;2023-06-24T01:17:43;16.00;99.90
8214;DHT22;4148;47.974;7.824;2023-06-24T01:20:20;15.90;99.90
8214;DHT22;4148;47.974;7.824;2023-06-24T01:23:24;16.00;99.90
8214;DHT22;4148;47.974;7.824;2023-06-24T01:26:13;15.80;99.90
8214;DHT22;4148;47.974;7.824;2023-06-24T01:28:58;15.80;99.90
8214;DHT22;4148;47.974;7.824;2023-06-24T01:31:35;15.70;99.90
8214;DHT22;4148;47.974;7.824;2023-06-24T01:34:12;15.60;99.90
8214;DHT22;4148;47.974;7.824;2023-06-24T01:36:49;15.60;99.90
8214;DHT22;4148;47.974;7.824;2023-06-24T01:39:18;15.60;99.90
8214;DHT22;4148;47.974;7.824;2023-06-24T01:41:54;15.70;99.90
8214;DHT22;4148;47.974;7.824;2023-06-24T01:44:23;15.80;99.90
8214;DHT22;4148;47.974;7.824;2023-06-24T01:46:56;15.80;99.90
8214;DHT22;4148;47.974;7.824;2023-06-24T01:49:28;15.80;99.90
8214;DHT22;4148;47.974;7.824;2023-06-24T01:51:58;15.60;99.90
8214;DHT22;4148;47.974;7.824;2023-06-24T01:54:28;15.50;99.90
8214;DHT22;4148;47.974;7.824;2023-06-24T01:56:59;15.70;99.90
8214;DHT22;4148;47.974;7.824;2023-06-24T01:59:28;15.90;99.90
8214;DHT22;4148;47.974;7.824;2023-06-24T02:01:59;15.80;99.90
8214;DHT22;4148;47.974;7.824;2023-06-24T02:04:28;15.80;99.90
8214;DHT22;4148;47.974;7.824;2023-06-24T02:06:59;15.80;99.90
8214;DHT22;4148;47.974;7.824;2023-06-24T02:09:29;15.80;99.90
8214;DHT22;4148;47.974;7.824;2023-06-24T02:12:00;15.80;99.90
8214;DHT22;4148;47.974;7.824;2023-06-24T02:14:30;15.80;99.90
8214;DHT22;4148;47.974;7.824;2023-06-24T02:17:02;15.70;99.90
8214;DHT22;4148;47.974;7.824;2023-06-24T02:19:31;15.60;99.90
8214;DHT22;4148;47.974;7.824;2023-06-24T02:22:00;15.60;99.90
8214;DHT22;4148;47.974;7.824;2023-06-24T02:24:29;15.50;99.90
8214;DHT22;4148;47.974;7.824;2023-06-24T02:26:58;15.60;99.90
8214;DHT22;4148;47.974;7.824;2023-06-24T02:29:26;15.60;99.90
8214;DHT22;4148;47.974;7.824;2023-06-24T02:31:55;15.70;99.90
8214;DHT22;4148;47.974;7.824;2023-06-24T02:34:24;15.70;99.90
8214;DHT22;4148;47.974;7.824;2023-06-24T02:36:52;15.70;99.90
8214;DHT22;4148;47.974;7.824;2023-06-24T02:39:20;15.70;99.90
8214;DHT22;4148;47.974;7.824;2023-06-24T02:41:49;15.70;99.90
8214;DHT22;4148;47.974;7.824;2023-06-24T02:44:17;15.70;99.90
8214;DHT22;4148;47.974;7.824;2023-06-24T02:46:46;15.50;99.90
8214;DHT22;4148;47.974;7.824;2023-06-24T02:49:15;15.50;99.90
8214;DHT22;4148;47.974;7.824;2023-06-24T02:51:46;15.50;99.90
8214;DHT22;4148;47.974;7.824;2023-06-24T02:54:14;15.50;99.90
8214;DHT22;4148;47.974;7.824;2023-06-24T02:56:43;15.40;99.90
8214;DHT22;4148;47.974;7.824;2023-06-24T02:59:11;15.40;99.90
8214;DHT22;4148;47.974;7.824;2023-06-24T03:01:39;15.30;99.90
8214;DHT22;4148;47.974;7.824;2023-06-24T03:04:11;15.20;99.90
8214;DHT22;4148;47.974;7.824;2023-06-24T03:06:40;15.10;99.90
8214;DHT22;4148;47.974;7.824;2023-06-24T03:09:09;15.10;99.90
8214;DHT22;4148;47.974;7.824;2023-06-24T03:11:40;15.20;99.90
8214;DHT22;4148;47.974;7.824;2023-06-24T03:14:09;15.20;99.90
8214;DHT22;4148;47.974;7.824;2023-06-24T03:16:37;15.20;99.90
8214;DHT22;4148;47.974;7.824;2023-06-24T03:19:05;15.40;99.90
8214;DHT22;4148;47.974;7.824;2023-06-24T03:21:33;15.40;99.90
8214;DHT22;4148;47.974;7.824;2023-06-24T03:24:01;15.30;99.90
8214;DHT22;4148;47.974;7.824;2023-06-24T03:26:34;15.30;99.90
8214;DHT22;4148;47.974;7.824;2023-06-24T03:29:02;15.30;99.90
8214;DHT22;4148;47.974;7.824;2023-06-24T03:31:30;15.40;99.90
8214;DHT22;4148;47.974;7.824;2023-06-24T03:33:58;15.40;99.90
8214;DHT22;4148;47.974;7.824;2023-06-24T03:36:26;15.20;99.90
8214;DHT22;4148;47.974;7.824;2023-06-24T03:38:54;15.30;99.90
8214;DHT22;4148;47.974;7.824;2023-06-24T03:41:22;15.10;99.90
8214;DHT22;4148;47.974;7.824;2023-06-24T03:43:51;15.00;99.90
8214;DHT22;4148;47.974;7.824;2023-06-24T03:46:19;14.90;99.90
8214;DHT22;4148;47.974;7.824;2023-06-24T03:48:49;15.00;99.90
8214;DHT22;4148;47.974;7.824;2023-06-24T03:51:17;14.90;99.90
8214;DHT22;4148;47.974;7.824;2023-06-24T03:53:45;14.90;99.90
8214;DHT22;4148;47.974;7.824;2023-06-24T03:56:13;14.90;99.90
8214;DHT22;4148;47.974;7.824;2023-06-24T03:58:41;15.00;99.90
8214;DHT22;4148;47.974;7.824;2023-06-24T04:01:10;15.10;99.90
8214;DHT22;4148;47.974;7.824;2023-06-24T04:03:38;15.00;99.90
8214;DHT22;4148;47.974;7.824;2023-06-24T04:06:06;14.90;99.90
8214;DHT22;4148;47.974;7.824;2023-06-24T04:08:34;14.90;99.90
8214;DHT22;4148;47.974;7.824;2023-06-24T04:11:06;14.80;99.90
8214;DHT22;4148;47.974;7.824;2023-06-24T04:13:34;14.90;99.90
8214;DHT22;4148;47.974;7.824;2023-06-24T04:16:02;15.10;99.90
8214;DHT22;4148;47.974;7.824;2023-06-24T04:18:31;15.00;99.90
8214;DHT22;4148;47.974;7.824;2023-06-24T04:20:59;14.90;99.90
8214;DHT22;4148;47.974;7.824;2023-06-24T04:23:27;14.90;99.90
8214;DHT22;4148;47.974;7.824;2023-06-24T04:25:55;15.00;99.90
8214;DHT22;4148;47.974;7.824;2023-06-24T04:28:23;15.10;99.90
8214;DHT22;4148;47.974;7.824;2023-06-24T04:30:51;15.00;99.90
8214;DHT22;4148;47.974;7.824;2023-06-24T04:33:19;15.00;99.90
8214;DHT22;4148;47.974;7.824;2023-06-24T04:35:48;15.00;99.90
8214;DHT22;4148;47.974;7.824;2023-06-24T04:38:17;15.00;99.90
8214;DHT22;4148;47.974;7.824;2023-06-24T04:40:45;15.10;99.90
8214;DHT22;4148;47.974;7.824;2023-06-24T04:43:13;15.20;99.90
8214;DHT22;4148;47.974;7.824;2023-06-24T04:45:41;15.30;99.90
8214;DHT22;4148;47.974;7.824;2023-06-24T04:48:09;15.30;99.90
8214;DHT22;4148;47.974;7.824;2023-06-24T04:50:37;15.30;99.90
8214;DHT22;4148;47.974;7.824;2023-06-24T04:53:06;15.40;99.90
8214;DHT22;4148;47.974;7.824;2023-06-24T04:55:34;15.40;99.90
8214;DHT22;4148;47.974;7.824;2023-06-24T04:58:02;15.40;99.90
8214;DHT22;4148;47.974;7.824;2023-06-24T05:00:30;15.50;99.90
8214;DHT22;4148;47.974;7.824;2023-06-24T05:02:58;15.50;99.90
8214;DHT22;4148;47.974;7.824;2023-06-24T05:05:26;15.50;99.90
8214;DHT22;4148;47.974;7.824;2023-06-24T05:07:54;15.50;99.90
8214;DHT22;4148;47.974;7.824;2023-06-24T05:10:23;15.60;99.90
8214;DHT22;4148;47.974;7.824;2023-06-24T05:12:51;15.60;99.90
8214;DHT22;4148;47.974;7.824;2023-06-24T05:15:19;15.80;99.90
8214;DHT22;4148;47.974;7.824;2023-06-24T05:17:47;15.90;99.90
8214;DHT22;4148;47.974;7.824;2023-06-24T05:20:19;15.90;99.90
8214;DHT22;4148;47.974;7.824;2023-06-24T05:22:46;16.10;99.90
8214;DHT22;4148;47.974;7.824;2023-06-24T05:25:14;16.20;99.90
8214;DHT22;4148;47.974;7.824;2023-06-24T05:27:44;16.30;99.90
8214;DHT22;4148;47.974;7.824;2023-06-24T05:30:12;16.30;99.90
8214;DHT22;4148;47.974;7.824;2023-06-24T05:32:41;16.30;99.90
8214;DHT22;4148;47.974;7.824;2023-06-24T05:35:09;16.30;99.90
8214;DHT22;4148;47.974;7.824;2023-06-24T05:37:37;16.30;99.90
8214;DHT22;4148;47.974;7.824;2023-06-24T05:40:06;16.40;99.90
8214;DHT22;4148;47.974;7.824;2023-06-24T05:42:34;16.40;99.90
8214;DHT22;4148;47.974;7.824;2023-06-24T05:45:04;16.40;99.90
8214;DHT22;4148;47.974;7.824;2023-06-24T05:47:32;16.60;99.90
8214;DHT22;4148;47.974;7.824;2023-06-24T05:50:00;16.70;99.90
8214;DHT22;4148;47.974;7.824;2023-06-24T05:52:28;16.80;99.90
8214;DHT22;4148;47.974;7.824;2023-06-24T05:54:56;16.90;99.90
8214;DHT22;4148;47.974;7.824;2023-06-24T05:57:24;17.00;99.90
8214;DHT22;4148;47.974;7.824;2023-06-24T05:59:52;17.10;99.90
8214;DHT22;4148;47.974;7.824;2023-06-24T06:02:21;17.10;99.90
8214;DHT22;4148;47.974;7.824;2023-06-24T06:04:49;17.20;99.90
8214;DHT22;4148;47.974;7.824;2023-06-24T06:07:17;17.40;99.90
8214;DHT22;4148;47.974;7.824;2023-06-24T06:09:45;17.50;99.90
8214;DHT22;4148;47.974;7.824;2023-06-24T06:12:13;17.60;99.90
8214;DHT22;4148;47.974;7.824;2023-06-24T06:14:41;17.60;99.90
8214;DHT22;4148;47.974;7.824;2023-06-24T06:17:09;17.80;99.90
8214;DHT22;4148;47.974;7.824;2023-06-24T06:19:38;18.00;99.90
8214;DHT22;4148;47.974;7.824;2023-06-24T06:22:08;18.10;99.90
8214;DHT22;4148;47.974;7.824;2023-06-24T06:24:35;18.30;99.90
8214;DHT22;4148;47.974;7.824;2023-06-24T06:27:04;18.70;99.90
8214;DHT22;4148;47.974;7.824;2023-06-24T06:29:32;19.20;99.90
8214;DHT22;4148;47.974;7.824;2023-06-24T06:32:00;19.60;99.90
8214;DHT22;4148;47.974;7.824;2023-06-24T06:34:28;19.90;99.90
8214;DHT22;4148;47.974;7.824;2023-06-24T06:36:57;20.20;99.90
8214;DHT22;4148;47.974;7.824;2023-06-24T06:39:26;20.40;99.90
8214;DHT22;4148;47.974;7.824;2023-06-24T06:41:54;20.60;99.90
8214;DHT22;4148;47.974;7.824;2023-06-24T06:44:22;20.70;99.90
8214;DHT22;4148;47.974;7.824;2023-06-24T06:46:49;20.90;99.90
8214;DHT22;4148;47.974;7.824;2023-06-24T06:49:17;21.00;99.90
8214;DHT22;4148;47.974;7.824;2023-06-24T06:51:45;21.30;99.90
8214;DHT22;4148;47.974;7.824;2023-06-24T06:54:14;21.40;99.90
8214;DHT22;4148;47.974;7.824;2023-06-24T06:56:42;21.30;99.90
8214;DHT22;4148;47.974;7.824;2023-06-24T06:59:10;21.40;99.90
8214;DHT22;4148;47.974;7.824;2023-06-24T07:01:38;21.50;99.90
8214;DHT22;4148;47.974;7.824;2023-06-24T07:04:06;21.70;99.90
8214;DHT22;4148;47.974;7.824;2023-06-24T07:06:34;21.80;99.90
8214;DHT22;4148;47.974;7.824;2023-06-24T07:09:02;21.80;99.90
8214;DHT22;4148;47.974;7.824;2023-06-24T07:11:31;21.80;99.90
8214;DHT22;4148;47.974;7.824;2023-06-24T07:13:59;21.90;99.90
8214;DHT22;4148;47.974;7.824;2023-06-24T07:16:27;22.00;99.90
8214;DHT22;4148;47.974;7.824;2023-06-24T07:18:55;22.10;99.90
8214;DHT22;4148;47.974;7.824;2023-06-24T07:21:23;22.20;99.90
8214;DHT22;4148;47.974;7.824;2023-06-24T07:23:51;22.20;99.90
8214;DHT22;4148;47.974;7.824;2023-06-24T07:26:18;22.30;99.90
8214;DHT22;4148;47.974;7.824;2023-06-24T07:28:48;22.30;99.90
8214;DHT22;4148;47.974;7.824;2023-06-24T07:31:29;22.20;99.90
8214;DHT22;4148;47.974;7.824;2023-06-24T07:33:57;22.50;99.90
8214;DHT22;4148;47.974;7.824;2023-06-24T07:36:25;22.40;99.90
8214;DHT22;4148;47.974;7.824;2023-06-24T07:38:53;22.40;99.90
8214;DHT22;4148;47.974;7.824;2023-06-24T07:41:21;22.60;99.90
8214;DHT22;4148;47.974;7.824;2023-06-24T07:43:51;22.70;99.90
8214;DHT22;4148;47.974;7.824;2023-06-24T07:46:19;22.70;99.90
8214;DHT22;4148;47.974;7.824;2023-06-24T07:48:47;22.70;99.90
8214;DHT22;4148;47.974;7.824;2023-06-24T07:51:14;22.70;99.90
8214;DHT22;4148;47.974;7.824;2023-06-24T07:53:42;22.90;99.90
8214;DHT22;4148;47.974;7.824;2023-06-24T07:56:10;23.10;99.90
8214;DHT22;4148;47.974;7.824;2023-06-24T07:58:38;23.40;99.90
8214;DHT22;4148;47.974;7.824;2023-06-24T08:01:07;23.40;99.90
8214;DHT22;4148;47.974;7.824;2023-06-24T08:03:35;23.40;99.90
8214;DHT22;4148;47.974;7.824;2023-06-24T08:06:04;23.60;99.90
8214;DHT22;4148;47.974;7.824;2023-06-24T08:08:32;23.70;99.90
8214;DHT22;4148;47.974;7.824;2023-06-24T08:10:59;23.90;99.90
8214;DHT22;4148;47.974;7.824;2023-06-24T08:13:27;24.10;99.90
8214;DHT22;4148;47.974;7.824;2023-06-24T08:15:55;24.30;99.90
8214;DHT22;4148;47.974;7.824;2023-06-24T08:18:25;24.50;99.90
8214;DHT22;4148;47.974;7.824;2023-06-24T08:20:53;24.80;99.90
8214;DHT22;4148;47.974;7.824;2023-06-24T08:23:20;24.90;99.90
8214;DHT22;4148;47.974;7.824;2023-06-24T08:25:48;25.10;99.90
8214;DHT22;4148;47.974;7.824;2023-06-24T08:28:22;25.40;99.90
8214;DHT22;4148;47.974;7.824;2023-06-24T08:30:50;25.70;99.90
8214;DHT22;4148;47.974;7.824;2023-06-24T08:33:18;26.00;99.90
8214;DHT22;4148;47.974;7.824;2023-06-24T08:35:47;26.30;99.90
8214;DHT22;4148;47.974;7.824;2023-06-24T08:38:15;26.40;99.90
8214;DHT22;4148;47.974;7.824;2023-06-24T08:40:44;26.70;99.90
8214;DHT22;4148;47.974;7.824;2023-06-24T08:43:12;26.90;99.90
8214;DHT22;4148;47.974;7.824;2023-06-24T08:45:40;27.00;99.90
8214;DHT22;4148;47.974;7.824;2023-06-24T08:48:08;27.20;99.90
8214;DHT22;4148;47.974;7.824;2023-06-24T08:50:44;27.50;99.90
8214;DHT22;4148;47.974;7.824;2023-06-24T08:53:15;27.70;99.90
8214;DHT22;4148;47.974;7.824;2023-06-24T08:58:13;28.00;99.90
8214;DHT22;4148;47.974;7.824;2023-06-24T09:00:43;28.30;99.90
8214;DHT22;4148;47.974;7.824;2023-06-24T09:03:11;28.30;99.90
8214;DHT22;4148;47.974;7.824;2023-06-24T09:05:39;28.60;99.90
8214;DHT22;4148;47.974;7.824;2023-06-24T09:08:07;28.60;99.00
8214;DHT22;4148;47.974;7.824;2023-06-24T09:10:37;28.80;98.90
8214;DHT22;4148;47.974;7.824;2023-06-24T09:13:06;28.80;99.30
8214;DHT22;4148;47.974;7.824;2023-06-24T09:15:35;29.00;99.40
8214;DHT22;4148;47.974;7.824;2023-06-24T09:18:05;29.40;98.60
8214;DHT22;4148;47.974;7.824;2023-06-24T09:20:33;29.40;96.30
8214;DHT22;4148;47.974;7.824;2023-06-24T09:23:06;29.40;97.80
8214;DHT22;4148;47.974;7.824;2023-06-24T09:25:35;29.50;97.80
8214;DHT22;4148;47.974;7.824;2023-06-24T09:28:04;29.80;96.50
8214;DHT22;4148;47.974;7.824;2023-06-24T09:30:32;29.80;96.10
8214;DHT22;4148;47.974;7.824;2023-06-24T09:33:00;30.00;94.70
8214;DHT22;4148;47.974;7.824;2023-06-24T09:35:28;30.00;99.90
8214;DHT22;4148;47.974;7.824;2023-06-24T09:38:02;30.10;99.90
8214;DHT22;4148;47.974;7.824;2023-06-24T09:40:36;30.30;99.90
8214;DHT22;4148;47.974;7.824;2023-06-24T09:43:04;30.20;99.90
8214;DHT22;4148;47.974;7.824;2023-06-24T09:45:32;30.30;99.90
8214;DHT22;4148;47.974;7.824;2023-06-24T09:48:00;30.40;99.90
8214;DHT22;4148;47.974;7.824;2023-06-24T09:50:28;30.40;99.90
8214;DHT22;4148;47.974;7.824;2023-06-24T09:52:58;30.50;99.90
8214;DHT22;4148;47.974;7.824;2023-06-24T09:55:27;30.60;99.90
8214;DHT22;4148;47.974;7.824;2023-06-24T09:57:57;30.60;99.90
8214;DHT22;4148;47.974;7.824;2023-06-24T10:00:25;30.70;99.90
8214;DHT22;4148;47.974;7.824;2023-06-24T10:02:54;30.70;99.90
8214;DHT22;4148;47.974;7.824;2023-06-24T10:05:26;30.60;99.90
8214;DHT22;4148;47.974;7.824;2023-06-24T10:07:54;30.70;99.90
8214;DHT22;4148;47.974;7.824;2023-06-24T10:10:22;31.00;99.90
8214;DHT22;4148;47.974;7.824;2023-06-24T10:12:50;30.90;99.90
8214;DHT22;4148;47.974;7.824;2023-06-24T10:15:19;30.90;99.90
8214;DHT22;4148;47.974;7.824;2023-06-24T10:17:47;30.90;99.90
8214;DHT22;4148;47.974;7.824;2023-06-24T10:20:24;31.10;99.90
8214;DHT22;4148;47.974;7.824;2023-06-24T10:22:52;30.80;99.90
8214;DHT22;4148;47.974;7.824;2023-06-24T10:25:20;31.10;99.90
8214;DHT22;4148;47.974;7.824;2023-06-24T10:27:53;31.30;99.90
8214;DHT22;4148;47.974;7.824;2023-06-24T10:30:23;31.50;99.90
8214;DHT22;4148;47.974;7.824;2023-06-24T10:32:54;31.50;99.90
8214;DHT22;4148;47.974;7.824;2023-06-24T10:35:23;31.90;99.90
8214;DHT22;4148;47.974;7.824;2023-06-24T10:37:54;31.70;99.90
8214;DHT22;4148;47.974;7.824;2023-06-24T10:40:37;31.70;99.90
8214;DHT22;4148;47.974;7.824;2023-06-24T10:43:27;31.90;99.90
8214;DHT22;4148;47.974;7.824;2023-06-24T10:45:58;31.90;99.90
8214;DHT22;4148;47.974;7.824;2023-06-24T10:48:26;32.00;99.90
8214;DHT22;4148;47.974;7.824;2023-06-24T10:50:54;31.80;99.90
8214;DHT22;4148;47.974;7.824;2023-06-24T10:53:22;31.70;99.90
8214;DHT22;4148;47.974;7.824;2023-06-24T10:55:50;31.80;99.90
8214;DHT22;4148;47.974;7.824;2023-06-24T10:58:18;31.80;99.90
8214;DHT22;4148;47.974;7.824;2023-06-24T11:00:46;32.20;99.90
8214;DHT22;4148;47.974;7.824;2023-06-24T11:03:16;32.50;99.90
8214;DHT22;4148;47.974;7.824;2023-06-24T11:05:46;32.20;99.90
8214;DHT22;4148;47.974;7.824;2023-06-24T11:08:14;32.50;99.90
8214;DHT22;4148;47.974;7.824;2023-06-24T11:10:43;32.60;99.90
8214;DHT22;4148;47.974;7.824;2023-06-24T11:13:12;32.00;99.90
8214;DHT22;4148;47.974;7.824;2023-06-24T11:15:40;31.60;99.90
8214;DHT22;4148;47.974;7.824;2023-06-24T11:18:09;31.70;99.90
8214;DHT22;4148;47.974;7.824;2023-06-24T11:20:39;32.00;99.90
8214;DHT22;4148;47.974;7.824;2023-06-24T11:23:08;32.00;99.90
8214;DHT22;4148;47.974;7.824;2023-06-24T11:25:41;32.30;99.90
8214;DHT22;4148;47.974;7.824;2023-06-24T11:28:13;31.70;99.90
8214;DHT22;4148;47.974;7.824;2023-06-24T11:30:41;31.40;99.90
8214;DHT22;4148;47.974;7.824;2023-06-24T11:33:09;31.30;99.90
8214;DHT22;4148;47.974;7.824;2023-06-24T11:35:38;31.40;99.90
8214;DHT22;4148;47.974;7.824;2023-06-24T11:38:06;31.40;99.90
8214;DHT22;4148;47.974;7.824;2023-06-24T11:40:36;31.50;99.90
8214;DHT22;4148;47.974;7.824;2023-06-24T11:43:04;31.60;99.90
8214;DHT22;4148;47.974;7.824;2023-06-24T11:45:32;31.30;99.90
8214;DHT22;4148;47.974;7.824;2023-06-24T11:48:03;30.90;99.90
8214;DHT22;4148;47.974;7.824;2023-06-24T11:50:32;31.00;99.90
8214;DHT22;4148;47.974;7.824;2023-06-24T11:53:02;30.70;99.90
8214;DHT22;4148;47.974;7.824;2023-06-24T11:55:31;30.70;99.90
8214;DHT22;4148;47.974;7.824;2023-06-24T11:58:01;30.30;99.90
8214;DHT22;4148;47.974;7.824;2023-06-24T12:00:33;30.00;99.90
8214;DHT22;4148;47.974;7.824;2023-06-24T12:03:05;30.00;99.90
8214;DHT22;4148;47.974;7.824;2023-06-24T12:05:38;29.90;99.90
8214;DHT22;4148;47.974;7.824;2023-06-24T12:08:13;29.70;99.90
8214;DHT22;4148;47.974;7.824;2023-06-24T12:10:43;29.70;99.90
8214;DHT22;4148;47.974;7.824;2023-06-24T12:13:11;29.50;99.90
8214;DHT22;4148;47.974;7.824;2023-06-24T12:15:40;29.60;99.90
8214;DHT22;4148;47.974;7.824;2023-06-24T12:18:08;29.70;99.90
8214;DHT22;4148;47.974;7.824;2023-06-24T12:20:36;29.70;99.90
8214;DHT22;4148;47.974;7.824;2023-06-24T12:23:05;29.80;99.90
8214;DHT22;4148;47.974;7.824;2023-06-24T12:25:35;29.90;99.90
8214;DHT22;4148;47.974;7.824;2023-06-24T12:28:03;29.90;99.90
8214;DHT22;4148;47.974;7.824;2023-06-24T12:30:30;29.90;99.90
8214;DHT22;4148;47.974;7.824;2023-06-24T12:32:58;29.70;99.90
8214;DHT22;4148;47.974;7.824;2023-06-24T12:35:26;29.70;99.90
8214;DHT22;4148;47.974;7.824;2023-06-24T12:37:55;29.70;99.90
8214;DHT22;4148;47.974;7.824;2023-06-24T12:40:23;29.80;99.90
8214;DHT22;4148;47.974;7.824;2023-06-24T12:42:52;29.60;99.90
8214;DHT22;4148;47.974;7.824;2023-06-24T12:45:20;29.50;99.90
8214;DHT22;4148;47.974;7.824;2023-06-24T12:47:47;29.40;99.90
8214;DHT22;4148;47.974;7.824;2023-06-24T12:50:17;29.40;99.90
8214;DHT22;4148;47.974;7.824;2023-06-24T12:52:45;29.10;99.90
8214;DHT22;4148;47.974;7.824;2023-06-24T12:55:13;28.90;99.90
8214;DHT22;4148;47.974;7.824;2023-06-24T12:57:43;28.90;99.90
8214;DHT22;4148;47.974;7.824;2023-06-24T13:00:13;28.90;99.90
8214;DHT22;4148;47.974;7.824;2023-06-24T13:02:41;28.80;99.90
8214;DHT22;4148;47.974;7.824;2023-06-24T13:05:09;28.80;99.90
8214;DHT22;4148;47.974;7.824;2023-06-24T13:07:37;28.90;99.90
8214;DHT22;4148;47.974;7.824;2023-06-24T13:10:06;28.90;99.90
8214;DHT22;4148;47.974;7.824;2023-06-24T13:12:34;28.80;99.90
8214;DHT22;4148;47.974;7.824;2023-06-24T13:15:03;28.90;99.90
8214;DHT22;4148;47.974;7.824;2023-06-24T13:17:33;28.80;99.90
8214;DHT22;4148;47.974;7.824;2023-06-24T13:20:01;28.70;99.90
8214;DHT22;4148;47.974;7.824;2023-06-24T13:22:30;28.60;99.90
8214;DHT22;4148;47.974;7.824;2023-06-24T13:24:58;28.40;99.90
8214;DHT22;4148;47.974;7.824;2023-06-24T13:27:26;28.50;99.90
8214;DHT22;4148;47.974;7.824;2023-06-24T13:29:54;28.40;99.90
8214;DHT22;4148;47.974;7.824;2023-06-24T13:32:22;28.30;99.90
8214;DHT22;4148;47.974;7.824;2023-06-24T13:34:51;28.20;99.90
8214;DHT22;4148;47.974;7.824;2023-06-24T13:37:19;28.20;99.90
8214;DHT22;4148;47.974;7.824;2023-06-24T13:39:47;28.30;99.90
8214;DHT22;4148;47.974;7.824;2023-06-24T13:42:15;28.30;99.90
8214;DHT22;4148;47.974;7.824;2023-06-24T13:44:43;28.20;99.90
8214;DHT22;4148;47.974;7.824;2023-06-24T13:47:11;28.10;99.90
8214;DHT22;4148;47.974;7.824;2023-06-24T13:49:39;28.10;99.90
8214;DHT22;4148;47.974;7.824;2023-06-24T13:52:08;28.10;99.90
8214;DHT22;4148;47.974;7.824;2023-06-24T13:54:36;28.10;99.90
8214;DHT22;4148;47.974;7.824;2023-06-24T13:57:04;28.10;99.90
8214;DHT22;4148;47.974;7.824;2023-06-24T13:59:32;28.20;99.90
8214;DHT22;4148;47.974;7.824;2023-06-24T14:02:00;28.30;99.90
8214;DHT22;4148;47.974;7.824;2023-06-24T14:04:28;28.30;99.90
8214;DHT22;4148;47.974;7.824;2023-06-24T14:06:56;28.30;99.90
8214;DHT22;4148;47.974;7.824;2023-06-24T14:09:26;28.40;99.90
8214;DHT22;4148;47.974;7.824;2023-06-24T14:11:54;28.40;99.90
8214;DHT22;4148;47.974;7.824;2023-06-24T14:14:22;28.30;99.90
8214;DHT22;4148;47.974;7.824;2023-06-24T14:16:50;28.30;99.90
8214;DHT22;4148;47.974;7.824;2023-06-24T14:19:18;28.30;99.90
8214;DHT22;4148;47.974;7.824;2023-06-24T14:21:46;28.40;99.90
8214;DHT22;4148;47.974;7.824;2023-06-24T14:24:14;28.40;99.90
8214;DHT22;4148;47.974;7.824;2023-06-24T14:26:44;28.30;99.90
8214;DHT22;4148;47.974;7.824;2023-06-24T14:29:15;28.30;99.90
8214;DHT22;4148;47.974;7.824;2023-06-24T14:31:43;28.40;99.90
8214;DHT22;4148;47.974;7.824;2023-06-24T14:34:12;28.40;99.90
8214;DHT22;4148;47.974;7.824;2023-06-24T14:36:39;28.30;99.90
8214;DHT22;4148;47.974;7.824;2023-06-24T14:39:07;28.30;99.90
8214;DHT22;4148;47.974;7.824;2023-06-24T14:41:35;28.30;99.90
8214;DHT22;4148;47.974;7.824;2023-06-24T14:44:05;28.30;99.90
8214;DHT22;4148;47.974;7.824;2023-06-24T14:46:32;28.30;99.90
8214;DHT22;4148;47.974;7.824;2023-06-24T14:49:00;28.30;99.90
8214;DHT22;4148;47.974;7.824;2023-06-24T14:51:28;28.20;99.90
8214;DHT22;4148;47.974;7.824;2023-06-24T14:53:56;28.10;99.90
8214;DHT22;4148;47.974;7.824;2023-06-24T14:56:24;28.10;99.90
8214;DHT22;4148;47.974;7.824;2023-06-24T14:58:52;28.20;99.90
8214;DHT22;4148;47.974;7.824;2023-06-24T15:01:21;28.10;99.90
8214;DHT22;4148;47.974;7.824;2023-06-24T15:03:49;28.10;99.90
8214;DHT22;4148;47.974;7.824;2023-06-24T15:06:17;28.00;99.90
8214;DHT22;4148;47.974;7.824;2023-06-24T15:08:45;28.00;99.90
8214;DHT22;4148;47.974;7.824;2023-06-24T15:11:13;28.00;99.90
8214;DHT22;4148;47.974;7.824;2023-06-24T15:13:41;28.10;99.90
8214;DHT22;4148;47.974;7.824;2023-06-24T15:16:08;28.10;99.90
8214;DHT22;4148;47.974;7.824;2023-06-24T15:18:45;28.00;99.90
8214;DHT22;4148;47.974;7.824;2023-06-24T15:21:14;28.00;99.90
8214;DHT22;4148;47.974;7.824;2023-06-24T15:24:02;28.00;99.90
8214;DHT22;4148;47.974;7.824;2023-06-24T15:26:30;28.00;99.90
8214;DHT22;4148;47.974;7.824;2023-06-24T15:28:58;28.00;99.90
8214;DHT22;4148;47.974;7.824;2023-06-24T15:31:27;28.10;99.90
8214;DHT22;4148;47.974;7.824;2023-06-24T15:33:56;28.20;99.90
8214;DHT22;4148;47.974;7.824;2023-06-24T15:36:24;28.20;99.90
8214;DHT22;4148;47.974;7.824;2023-06-24T15:38:53;28.20;99.90
8214;DHT22;4148;47.974;7.824;2023-06-24T15:41:21;28.20;99.90
8214;DHT22;4148;47.974;7.824;2023-06-24T15:43:49;28.10;99.90
8214;DHT22;4148;47.974;7.824;2023-06-24T15:46:17;28.10;99.90
8214;DHT22;4148;47.974;7.824;2023-06-24T15:48:45;28.10;99.90
8214;DHT22;4148;47.974;7.824;2023-06-24T15:51:14;28.10;99.90
8214;DHT22;4148;47.974;7.824;2023-06-24T15:53:42;28.10;99.90
8214;DHT22;4148;47.974;7.824;2023-06-24T15:56:10;28.10;99.90
8214;DHT22;4148;47.974;7.824;2023-06-24T15:58:38;28.10;99.90
8214;DHT22;4148;47.974;7.824;2023-06-24T16:01:06;28.00;99.90
8214;DHT22;4148;47.974;7.824;2023-06-24T16:03:34;28.10;99.90
8214;DHT22;4148;47.974;7.824;2023-06-24T16:06:02;28.00;99.90
8214;DHT22;4148;47.974;7.824;2023-06-24T16:08:32;28.00;99.90
8214;DHT22;4148;47.974;7.824;2023-06-24T16:11:00;28.00;99.90
8214;DHT22;4148;47.974;7.824;2023-06-24T16:13:28;28.00;99.90
8214;DHT22;4148;47.974;7.824;2023-06-24T16:15:57;28.00;99.90